sensor_id;sensor_type;location;lat;lon;timestamp;P1;durP1;ratioP1;P2;durP2;ratioP2
840;SDS011;406;48.566;13.450;2022-12-29T00:01:47;13.33;;;11.97;;
840;SDS011;406;48.566;13.450;2022-12-29T00:04:13;17.40;;;14.93;;
840;SDS011;406;48.566;13.450;2022-12-29T00:06:41;14.60;;;12.30;;
840;SDS011;406;48.566;13.450;2022-12-29T00:09:07;15.63;;;13.10;;
840;SDS011;406;48.566;13.450;2022-12-29T00:11:33;15.70;;;11.80;;
840;SDS011;406;48.566;13.450;2022-12-29T00:13:58;17.90;;;13.67;;
840;SDS011;406;48.566;13.450;2022-12-29T00:16:44;16.48;;;14.65;;
840;SDS011;406;48.566;13.450;2022-12-29T00:19:10;20.15;;;16.10;;
840;SDS011;406;48.566;13.450;2022-12-29T00:21:57;17.50;;;15.27;;
840;SDS011;406;48.566;13.450;2022-12-29T00:24:43;24.42;;;13.98;;
840;SDS011;406;48.566;13.450;2022-12-29T00:27:29;14.43;;;12.93;;
840;SDS011;406;48.566;13.450;2022-12-29T00:30:15;18.67;;;14.73;;
840;SDS011;406;48.566;13.450;2022-12-29T00:36:02;15.88;;;13.55;;
840;SDS011;406;48.566;13.450;2022-12-29T00:38:32;15.63;;;13.82;;
840;SDS011;406;48.566;13.450;2022-12-29T00:41:19;34.33;;;18.02;;
840;SDS011;406;48.566;13.450;2022-12-29T00:44:04;77.90;;;23.83;;
840;SDS011;406;48.566;13.450;2022-12-29T00:46:33;137.32;;;31.95;;
840;SDS011;406;48.566;13.450;2022-12-29T00:49:00;26.10;;;17.63;;
840;SDS011;406;48.566;13.450;2022-12-29T00:51:44;73.25;;;19.05;;
840;SDS011;406;48.566;13.450;2022-12-29T00:54:10;190.00;;;31.57;;
840;SDS011;406;48.566;13.450;2022-12-29T00:56:36;161.50;;;26.67;;
840;SDS011;406;48.566;13.450;2022-12-29T00:59:02;32.60;;;16.30;;
840;SDS011;406;48.566;13.450;2022-12-29T01:01:29;37.60;;;16.38;;
840;SDS011;406;48.566;13.450;2022-12-29T01:03:55;39.08;;;18.88;;
840;SDS011;406;48.566;13.450;2022-12-29T01:06:21;83.13;;;22.70;;
840;SDS011;406;48.566;13.450;2022-12-29T01:08:47;45.03;;;18.10;;
840;SDS011;406;48.566;13.450;2022-12-29T01:11:32;44.85;;;17.25;;
840;SDS011;406;48.566;13.450;2022-12-29T01:14:00;26.92;;;16.08;;
840;SDS011;406;48.566;13.450;2022-12-29T01:16:25;51.37;;;21.00;;
840;SDS011;406;48.566;13.450;2022-12-29T01:18:51;100.63;;;22.70;;
840;SDS011;406;48.566;13.450;2022-12-29T01:21:16;41.33;;;16.43;;
840;SDS011;406;48.566;13.450;2022-12-29T01:23:42;58.90;;;19.00;;
840;SDS011;406;48.566;13.450;2022-12-29T01:26:08;43.73;;;19.97;;
840;SDS011;406;48.566;13.450;2022-12-29T01:28:35;28.33;;;12.75;;
840;SDS011;406;48.566;13.450;2022-12-29T01:31:00;25.90;;;15.83;;
840;SDS011;406;48.566;13.450;2022-12-29T01:33:26;23.77;;;15.60;;
840;SDS011;406;48.566;13.450;2022-12-29T01:35:52;22.70;;;15.93;;
840;SDS011;406;48.566;13.450;2022-12-29T01:38:17;33.57;;;18.47;;
840;SDS011;406;48.566;13.450;2022-12-29T01:40:46;18.60;;;16.00;;
840;SDS011;406;48.566;13.450;2022-12-29T01:43:12;76.60;;;21.45;;
840;SDS011;406;48.566;13.450;2022-12-29T01:45:40;39.03;;;16.98;;
840;SDS011;406;48.566;13.450;2022-12-29T01:48:09;45.22;;;16.70;;
840;SDS011;406;48.566;13.450;2022-12-29T01:50:36;72.73;;;16.53;;
840;SDS011;406;48.566;13.450;2022-12-29T01:53:07;83.93;;;20.67;;
840;SDS011;406;48.566;13.450;2022-12-29T01:55:36;32.75;;;16.25;;
840;SDS011;406;48.566;13.450;2022-12-29T01:58:06;52.50;;;19.45;;
840;SDS011;406;48.566;13.450;2022-12-29T02:00:32;56.27;;;20.03;;
840;SDS011;406;48.566;13.450;2022-12-29T02:02:58;37.50;;;17.07;;
840;SDS011;406;48.566;13.450;2022-12-29T02:08:03;48.58;;;18.83;;
840;SDS011;406;48.566;13.450;2022-12-29T02:10:30;68.57;;;20.30;;
840;SDS011;406;48.566;13.450;2022-12-29T02:12:57;95.97;;;24.67;;
840;SDS011;406;48.566;13.450;2022-12-29T02:15:26;40.53;;;19.10;;
840;SDS011;406;48.566;13.450;2022-12-29T02:18:19;63.70;;;21.80;;
840;SDS011;406;48.566;13.450;2022-12-29T02:21:06;58.40;;;20.58;;
840;SDS011;406;48.566;13.450;2022-12-29T02:37:57;87.03;;;23.30;;
840;SDS011;406;48.566;13.450;2022-12-29T02:40:29;104.53;;;22.73;;
840;SDS011;406;48.566;13.450;2022-12-29T02:43:23;67.15;;;20.15;;
840;SDS011;406;48.566;13.450;2022-12-29T02:48:57;53.53;;;18.65;;
840;SDS011;406;48.566;13.450;2022-12-29T02:51:49;211.43;;;34.15;;
840;SDS011;406;48.566;13.450;2022-12-29T02:54:18;52.67;;;19.27;;
840;SDS011;406;48.566;13.450;2022-12-29T02:57:38;147.20;;;27.77;;
840;SDS011;406;48.566;13.450;2022-12-29T03:00:03;35.05;;;17.30;;
840;SDS011;406;48.566;13.450;2022-12-29T03:02:56;86.03;;;22.02;;
840;SDS011;406;48.566;13.450;2022-12-29T03:08:26;41.88;;;15.88;;
840;SDS011;406;48.566;13.450;2022-12-29T03:11:06;47.85;;;16.02;;
840;SDS011;406;48.566;13.450;2022-12-29T03:19:30;27.17;;;15.93;;
840;SDS011;406;48.566;13.450;2022-12-29T03:22:05;34.88;;;16.70;;
840;SDS011;406;48.566;13.450;2022-12-29T03:25:13;49.90;;;18.85;;
840;SDS011;406;48.566;13.450;2022-12-29T03:27:47;98.82;;;25.70;;
840;SDS011;406;48.566;13.450;2022-12-29T03:30:15;29.30;;;15.68;;
840;SDS011;406;48.566;13.450;2022-12-29T03:32:46;32.17;;;16.83;;
840;SDS011;406;48.566;13.450;2022-12-29T03:35:16;26.23;;;16.90;;
840;SDS011;406;48.566;13.450;2022-12-29T03:37:52;160.48;;;25.95;;
840;SDS011;406;48.566;13.450;2022-12-29T03:40:22;39.38;;;17.00;;
840;SDS011;406;48.566;13.450;2022-12-29T03:42:48;52.78;;;13.40;;
840;SDS011;406;48.566;13.450;2022-12-29T03:45:14;42.90;;;13.17;;
840;SDS011;406;48.566;13.450;2022-12-29T03:47:40;88.77;;;16.73;;
840;SDS011;406;48.566;13.450;2022-12-29T03:50:05;51.37;;;15.90;;
840;SDS011;406;48.566;13.450;2022-12-29T03:52:36;54.05;;;17.58;;
840;SDS011;406;48.566;13.450;2022-12-29T03:55:02;56.97;;;16.25;;
840;SDS011;406;48.566;13.450;2022-12-29T03:57:29;47.92;;;15.50;;
840;SDS011;406;48.566;13.450;2022-12-29T04:00:00;65.68;;;20.58;;
840;SDS011;406;48.566;13.450;2022-12-29T04:02:29;51.15;;;16.48;;
840;SDS011;406;48.566;13.450;2022-12-29T04:04:55;79.65;;;17.77;;
840;SDS011;406;48.566;13.450;2022-12-29T04:07:22;40.22;;;18.05;;
840;SDS011;406;48.566;13.450;2022-12-29T04:09:48;70.88;;;21.05;;
840;SDS011;406;48.566;13.450;2022-12-29T04:12:19;29.23;;;16.70;;
840;SDS011;406;48.566;13.450;2022-12-29T04:14:45;60.07;;;20.23;;
840;SDS011;406;48.566;13.450;2022-12-29T04:17:11;66.37;;;18.60;;
840;SDS011;406;48.566;13.450;2022-12-29T04:19:38;74.00;;;19.25;;
840;SDS011;406;48.566;13.450;2022-12-29T04:22:03;36.43;;;16.63;;
840;SDS011;406;48.566;13.450;2022-12-29T04:24:29;40.73;;;17.30;;
840;SDS011;406;48.566;13.450;2022-12-29T04:26:54;101.97;;;21.23;;
840;SDS011;406;48.566;13.450;2022-12-29T04:29:28;59.78;;;19.08;;
840;SDS011;406;48.566;13.450;2022-12-29T04:32:09;69.95;;;15.23;;
840;SDS011;406;48.566;13.450;2022-12-29T04:34:40;66.45;;;17.90;;
840;SDS011;406;48.566;13.450;2022-12-29T04:37:05;23.83;;;11.93;;
840;SDS011;406;48.566;13.450;2022-12-29T04:39:31;32.90;;;20.23;;
840;SDS011;406;48.566;13.450;2022-12-29T04:41:58;24.30;;;15.88;;
840;SDS011;406;48.566;13.450;2022-12-29T04:44:24;28.80;;;17.27;;
840;SDS011;406;48.566;13.450;2022-12-29T04:47:02;43.40;;;14.07;;
840;SDS011;406;48.566;13.450;2022-12-29T04:49:41;67.18;;;20.00;;
840;SDS011;406;48.566;13.450;2022-12-29T04:52:25;36.22;;;16.55;;
840;SDS011;406;48.566;13.450;2022-12-29T04:54:52;33.15;;;17.70;;
840;SDS011;406;48.566;13.450;2022-12-29T04:57:19;58.33;;;18.27;;
840;SDS011;406;48.566;13.450;2022-12-29T04:59:49;28.08;;;17.30;;
840;SDS011;406;48.566;13.450;2022-12-29T05:02:15;24.10;;;12.40;;
840;SDS011;406;48.566;13.450;2022-12-29T05:04:41;19.73;;;14.27;;
840;SDS011;406;48.566;13.450;2022-12-29T05:07:06;49.20;;;15.30;;
840;SDS011;406;48.566;13.450;2022-12-29T05:09:32;75.03;;;21.57;;
840;SDS011;406;48.566;13.450;2022-12-29T05:11:59;37.67;;;17.67;;
840;SDS011;406;48.566;13.450;2022-12-29T05:14:24;24.93;;;14.60;;
840;SDS011;406;48.566;13.450;2022-12-29T05:16:52;34.05;;;18.20;;
840;SDS011;406;48.566;13.450;2022-12-29T05:19:23;25.05;;;15.00;;
840;SDS011;406;48.566;13.450;2022-12-29T05:21:48;18.67;;;14.70;;
840;SDS011;406;48.566;13.450;2022-12-29T05:24:14;23.50;;;14.80;;
840;SDS011;406;48.566;13.450;2022-12-29T05:26:40;31.00;;;15.07;;
840;SDS011;406;48.566;13.450;2022-12-29T05:29:32;17.45;;;13.55;;
840;SDS011;406;48.566;13.450;2022-12-29T05:31:58;23.93;;;15.00;;
840;SDS011;406;48.566;13.450;2022-12-29T05:34:23;21.50;;;15.03;;
840;SDS011;406;48.566;13.450;2022-12-29T05:36:50;21.95;;;16.73;;
840;SDS011;406;48.566;13.450;2022-12-29T05:39:15;21.60;;;15.43;;
840;SDS011;406;48.566;13.450;2022-12-29T05:41:43;20.70;;;14.63;;
840;SDS011;406;48.566;13.450;2022-12-29T05:44:14;16.92;;;14.45;;
840;SDS011;406;48.566;13.450;2022-12-29T05:46:49;18.45;;;14.63;;
840;SDS011;406;48.566;13.450;2022-12-29T05:49:32;19.33;;;13.55;;
840;SDS011;406;48.566;13.450;2022-12-29T05:52:18;14.70;;;12.75;;
840;SDS011;406;48.566;13.450;2022-12-29T05:54:44;18.40;;;13.17;;
840;SDS011;406;48.566;13.450;2022-12-29T05:57:12;15.60;;;11.30;;
840;SDS011;406;48.566;13.450;2022-12-29T05:59:39;16.90;;;13.70;;
840;SDS011;406;48.566;13.450;2022-12-29T06:02:05;16.63;;;9.80;;
840;SDS011;406;48.566;13.450;2022-12-29T06:04:31;14.32;;;10.70;;
840;SDS011;406;48.566;13.450;2022-12-29T06:06:57;14.30;;;11.20;;
840;SDS011;406;48.566;13.450;2022-12-29T06:09:35;15.85;;;10.50;;
840;SDS011;406;48.566;13.450;2022-12-29T06:12:01;13.88;;;10.85;;
840;SDS011;406;48.566;13.450;2022-12-29T06:14:27;17.07;;;13.20;;
840;SDS011;406;48.566;13.450;2022-12-29T06:16:52;16.40;;;12.70;;
840;SDS011;406;48.566;13.450;2022-12-29T06:19:18;15.93;;;11.30;;
840;SDS011;406;48.566;13.450;2022-12-29T06:21:43;15.80;;;12.70;;
840;SDS011;406;48.566;13.450;2022-12-29T06:24:09;14.03;;;12.20;;
840;SDS011;406;48.566;13.450;2022-12-29T06:26:36;14.55;;;13.00;;
840;SDS011;406;48.566;13.450;2022-12-29T06:29:02;16.80;;;12.10;;
840;SDS011;406;48.566;13.450;2022-12-29T06:31:28;14.63;;;11.75;;
840;SDS011;406;48.566;13.450;2022-12-29T06:33:53;14.30;;;11.57;;
840;SDS011;406;48.566;13.450;2022-12-29T06:36:19;13.93;;;12.37;;
840;SDS011;406;48.566;13.450;2022-12-29T06:38:44;17.00;;;10.30;;
840;SDS011;406;48.566;13.450;2022-12-29T06:41:11;14.00;;;11.55;;
840;SDS011;406;48.566;13.450;2022-12-29T06:44:02;13.75;;;10.95;;
840;SDS011;406;48.566;13.450;2022-12-29T06:46:38;13.50;;;9.88;;
840;SDS011;406;48.566;13.450;2022-12-29T06:49:04;12.53;;;11.00;;
840;SDS011;406;48.566;13.450;2022-12-29T06:51:29;10.73;;;9.30;;
840;SDS011;406;48.566;13.450;2022-12-29T06:53:55;13.27;;;10.80;;
840;SDS011;406;48.566;13.450;2022-12-29T06:56:20;15.30;;;11.73;;
840;SDS011;406;48.566;13.450;2022-12-29T06:58:46;14.40;;;11.97;;
840;SDS011;406;48.566;13.450;2022-12-29T07:01:11;14.77;;;11.17;;
840;SDS011;406;48.566;13.450;2022-12-29T07:03:37;13.70;;;12.30;;
840;SDS011;406;48.566;13.450;2022-12-29T07:06:02;14.70;;;12.57;;
840;SDS011;406;48.566;13.450;2022-12-29T07:08:28;14.65;;;13.05;;
840;SDS011;406;48.566;13.450;2022-12-29T07:10:54;18.90;;;10.37;;
840;SDS011;406;48.566;13.450;2022-12-29T07:13:19;11.50;;;10.40;;
840;SDS011;406;48.566;13.450;2022-12-29T07:15:45;13.50;;;9.83;;
840;SDS011;406;48.566;13.450;2022-12-29T07:18:10;13.03;;;10.03;;
840;SDS011;406;48.566;13.450;2022-12-29T07:20:36;12.53;;;10.03;;
840;SDS011;406;48.566;13.450;2022-12-29T07:23:02;17.17;;;12.70;;
840;SDS011;406;48.566;13.450;2022-12-29T07:25:27;13.85;;;11.85;;
840;SDS011;406;48.566;13.450;2022-12-29T07:27:54;12.75;;;11.23;;
840;SDS011;406;48.566;13.450;2022-12-29T07:30:20;14.30;;;9.83;;
840;SDS011;406;48.566;13.450;2022-12-29T07:32:45;12.37;;;9.13;;
840;SDS011;406;48.566;13.450;2022-12-29T07:35:11;18.10;;;12.80;;
840;SDS011;406;48.566;13.450;2022-12-29T07:37:36;12.87;;;10.70;;
840;SDS011;406;48.566;13.450;2022-12-29T07:40:02;17.83;;;11.17;;
840;SDS011;406;48.566;13.450;2022-12-29T07:42:28;12.48;;;10.77;;
840;SDS011;406;48.566;13.450;2022-12-29T07:44:57;16.35;;;12.25;;
840;SDS011;406;48.566;13.450;2022-12-29T07:47:33;13.45;;;11.75;;
840;SDS011;406;48.566;13.450;2022-12-29T07:49:59;15.10;;;12.93;;
840;SDS011;406;48.566;13.450;2022-12-29T07:52:24;14.93;;;11.90;;
840;SDS011;406;48.566;13.450;2022-12-29T07:54:50;14.00;;;12.50;;
840;SDS011;406;48.566;13.450;2022-12-29T07:57:15;19.70;;;14.40;;
840;SDS011;406;48.566;13.450;2022-12-29T07:59:41;16.40;;;12.93;;
840;SDS011;406;48.566;13.450;2022-12-29T08:02:09;12.13;;;10.37;;
840;SDS011;406;48.566;13.450;2022-12-29T08:04:35;15.35;;;11.23;;
840;SDS011;406;48.566;13.450;2022-12-29T08:07:00;13.20;;;11.80;;
840;SDS011;406;48.566;13.450;2022-12-29T08:09:26;12.20;;;10.47;;
840;SDS011;406;48.566;13.450;2022-12-29T08:11:51;14.50;;;10.90;;
840;SDS011;406;48.566;13.450;2022-12-29T08:14:17;14.40;;;10.07;;
840;SDS011;406;48.566;13.450;2022-12-29T08:16:43;12.15;;;10.25;;
840;SDS011;406;48.566;13.450;2022-12-29T08:19:10;10.90;;;9.80;;
840;SDS011;406;48.566;13.450;2022-12-29T08:21:36;12.57;;;11.18;;
840;SDS011;406;48.566;13.450;2022-12-29T08:24:02;11.00;;;9.70;;
840;SDS011;406;48.566;13.450;2022-12-29T08:26:27;11.90;;;9.87;;
840;SDS011;406;48.566;13.450;2022-12-29T08:28:53;11.70;;;10.60;;
840;SDS011;406;48.566;13.450;2022-12-29T08:31:21;15.73;;;9.68;;
840;SDS011;406;48.566;13.450;2022-12-29T08:33:46;11.45;;;9.90;;
840;SDS011;406;48.566;13.450;2022-12-29T08:36:12;12.23;;;10.30;;
840;SDS011;406;48.566;13.450;2022-12-29T08:38:37;12.43;;;9.97;;
840;SDS011;406;48.566;13.450;2022-12-29T08:41:03;10.97;;;9.00;;
840;SDS011;406;48.566;13.450;2022-12-29T08:43:29;13.32;;;11.07;;
840;SDS011;406;48.566;13.450;2022-12-29T08:45:56;12.53;;;11.23;;
840;SDS011;406;48.566;13.450;2022-12-29T08:48:22;10.40;;;9.30;;
840;SDS011;406;48.566;13.450;2022-12-29T08:50:48;11.40;;;9.73;;
840;SDS011;406;48.566;13.450;2022-12-29T08:53:15;11.90;;;8.15;;
840;SDS011;406;48.566;13.450;2022-12-29T08:55:41;9.77;;;8.70;;
840;SDS011;406;48.566;13.450;2022-12-29T08:58:06;9.03;;;8.10;;
840;SDS011;406;48.566;13.450;2022-12-29T09:00:34;11.82;;;8.15;;
840;SDS011;406;48.566;13.450;2022-12-29T09:03:00;10.43;;;9.32;;
840;SDS011;406;48.566;13.450;2022-12-29T09:05:26;9.17;;;8.23;;
840;SDS011;406;48.566;13.450;2022-12-29T09:07:51;12.40;;;9.43;;
840;SDS011;406;48.566;13.450;2022-12-29T09:10:17;13.37;;;9.87;;
840;SDS011;406;48.566;13.450;2022-12-29T09:12:42;11.30;;;9.27;;
840;SDS011;406;48.566;13.450;2022-12-29T09:15:08;12.23;;;9.03;;
840;SDS011;406;48.566;13.450;2022-12-29T09:17:34;9.73;;;8.73;;
840;SDS011;406;48.566;13.450;2022-12-29T09:20:09;10.98;;;9.10;;
840;SDS011;406;48.566;13.450;2022-12-29T09:22:35;12.40;;;9.37;;
840;SDS011;406;48.566;13.450;2022-12-29T09:25:01;13.00;;;8.50;;
840;SDS011;406;48.566;13.450;2022-12-29T09:27:26;14.10;;;9.87;;
840;SDS011;406;48.566;13.450;2022-12-29T09:29:52;15.23;;;7.60;;
840;SDS011;406;48.566;13.450;2022-12-29T09:32:17;12.30;;;7.77;;
840;SDS011;406;48.566;13.450;2022-12-29T09:34:43;9.93;;;8.10;;
840;SDS011;406;48.566;13.450;2022-12-29T09:37:08;10.57;;;8.37;;
840;SDS011;406;48.566;13.450;2022-12-29T09:39:34;10.43;;;8.20;;
840;SDS011;406;48.566;13.450;2022-12-29T09:42:12;11.03;;;9.47;;
840;SDS011;406;48.566;13.450;2022-12-29T09:47:29;11.63;;;9.73;;
840;SDS011;406;48.566;13.450;2022-12-29T09:49:56;9.90;;;8.90;;
840;SDS011;406;48.566;13.450;2022-12-29T09:52:26;9.27;;;8.20;;
840;SDS011;406;48.566;13.450;2022-12-29T09:54:56;10.10;;;8.73;;
840;SDS011;406;48.566;13.450;2022-12-29T09:57:27;12.60;;;8.30;;
840;SDS011;406;48.566;13.450;2022-12-29T09:59:56;10.90;;;8.63;;
840;SDS011;406;48.566;13.450;2022-12-29T10:05:35;9.05;;;7.18;;
840;SDS011;406;48.566;13.450;2022-12-29T10:17:08;10.63;;;7.40;;
840;SDS011;406;48.566;13.450;2022-12-29T10:19:20;9.30;;;6.83;;
840;SDS011;406;48.566;13.450;2022-12-29T10:24:24;9.30;;;6.80;;
840;SDS011;406;48.566;13.450;2022-12-29T10:26:51;7.97;;;6.60;;
840;SDS011;406;48.566;13.450;2022-12-29T10:29:21;14.30;;;6.13;;
840;SDS011;406;48.566;13.450;2022-12-29T10:32:04;6.57;;;5.87;;
840;SDS011;406;48.566;13.450;2022-12-29T10:34:53;9.73;;;7.00;;
840;SDS011;406;48.566;13.450;2022-12-29T10:37:37;8.17;;;6.67;;
840;SDS011;406;48.566;13.450;2022-12-29T10:40:14;18.43;;;9.33;;
840;SDS011;406;48.566;13.450;2022-12-29T10:42:45;8.10;;;6.03;;
840;SDS011;406;48.566;13.450;2022-12-29T10:45:15;9.33;;;6.90;;
840;SDS011;406;48.566;13.450;2022-12-29T10:47:47;7.73;;;6.50;;
840;SDS011;406;48.566;13.450;2022-12-29T10:50:17;7.40;;;6.57;;
840;SDS011;406;48.566;13.450;2022-12-29T10:52:42;8.40;;;6.27;;
840;SDS011;406;48.566;13.450;2022-12-29T10:55:15;16.73;;;6.50;;
840;SDS011;406;48.566;13.450;2022-12-29T10:57:44;8.27;;;6.57;;
840;SDS011;406;48.566;13.450;2022-12-29T11:00:14;10.27;;;7.07;;
840;SDS011;406;48.566;13.450;2022-12-29T11:07:49;7.57;;;5.60;;
840;SDS011;406;48.566;13.450;2022-12-29T11:10:16;6.90;;;6.20;;
840;SDS011;406;48.566;13.450;2022-12-29T11:12:59;8.90;;;6.70;;
840;SDS011;406;48.566;13.450;2022-12-29T11:15:27;7.73;;;5.80;;
840;SDS011;406;48.566;13.450;2022-12-29T11:17:56;7.50;;;5.67;;
840;SDS011;406;48.566;13.450;2022-12-29T11:22:55;7.50;;;5.97;;
840;SDS011;406;48.566;13.450;2022-12-29T11:25:21;6.80;;;5.83;;
840;SDS011;406;48.566;13.450;2022-12-29T11:27:57;7.53;;;5.23;;
840;SDS011;406;48.566;13.450;2022-12-29T11:30:26;6.63;;;5.57;;
840;SDS011;406;48.566;13.450;2022-12-29T11:32:54;7.83;;;6.40;;
840;SDS011;406;48.566;13.450;2022-12-29T11:35:29;10.27;;;6.63;;
840;SDS011;406;48.566;13.450;2022-12-29T11:37:59;8.33;;;5.87;;
840;SDS011;406;48.566;13.450;2022-12-29T11:40:25;7.40;;;5.60;;
840;SDS011;406;48.566;13.450;2022-12-29T11:42:51;6.00;;;5.20;;
840;SDS011;406;48.566;13.450;2022-12-29T11:45:20;6.83;;;5.90;;
840;SDS011;406;48.566;13.450;2022-12-29T11:47:48;8.50;;;6.23;;
840;SDS011;406;48.566;13.450;2022-12-29T11:50:20;6.17;;;5.43;;
840;SDS011;406;48.566;13.450;2022-12-29T11:52:48;8.37;;;6.40;;
840;SDS011;406;48.566;13.450;2022-12-29T11:55:21;9.47;;;6.07;;
840;SDS011;406;48.566;13.450;2022-12-29T11:57:47;6.77;;;5.90;;
840;SDS011;406;48.566;13.450;2022-12-29T12:00:14;8.13;;;5.90;;
840;SDS011;406;48.566;13.450;2022-12-29T12:02:53;6.33;;;5.70;;
840;SDS011;406;48.566;13.450;2022-12-29T12:05:22;6.00;;;5.40;;
840;SDS011;406;48.566;13.450;2022-12-29T12:10:29;6.23;;;5.60;;
840;SDS011;406;48.566;13.450;2022-12-29T12:15:34;8.20;;;6.00;;
840;SDS011;406;48.566;13.450;2022-12-29T12:18:08;7.27;;;5.50;;
840;SDS011;406;48.566;13.450;2022-12-29T12:23:40;6.40;;;5.30;;
840;SDS011;406;48.566;13.450;2022-12-29T12:26:20;6.60;;;5.90;;
840;SDS011;406;48.566;13.450;2022-12-29T12:29:01;5.57;;;4.73;;
840;SDS011;406;48.566;13.450;2022-12-29T12:31:39;5.80;;;4.60;;
840;SDS011;406;48.566;13.450;2022-12-29T12:34:10;6.23;;;5.17;;
840;SDS011;406;48.566;13.450;2022-12-29T12:36:49;6.83;;;5.97;;
840;SDS011;406;48.566;13.450;2022-12-29T12:42:27;7.70;;;6.07;;
840;SDS011;406;48.566;13.450;2022-12-29T12:45:08;5.57;;;5.03;;
840;SDS011;406;48.566;13.450;2022-12-29T12:53:22;5.30;;;4.80;;
840;SDS011;406;48.566;13.450;2022-12-29T12:58:52;6.47;;;4.90;;
840;SDS011;406;48.566;13.450;2022-12-29T13:12:48;5.67;;;5.13;;
840;SDS011;406;48.566;13.450;2022-12-29T13:18:30;9.03;;;6.20;;
840;SDS011;406;48.566;13.450;2022-12-29T13:21:05;9.13;;;6.50;;
840;SDS011;406;48.566;13.450;2022-12-29T13:26:15;8.80;;;6.50;;
840;SDS011;406;48.566;13.450;2022-12-29T13:31:50;6.70;;;5.63;;
840;SDS011;406;48.566;13.450;2022-12-29T13:34:30;6.03;;;5.03;;
840;SDS011;406;48.566;13.450;2022-12-29T13:37:13;7.10;;;5.27;;
840;SDS011;406;48.566;13.450;2022-12-29T13:39:48;7.47;;;5.40;;
840;SDS011;406;48.566;13.450;2022-12-29T13:42:17;6.27;;;5.40;;
840;SDS011;406;48.566;13.450;2022-12-29T13:47:37;6.47;;;5.20;;
840;SDS011;406;48.566;13.450;2022-12-29T13:50:05;7.10;;;5.77;;
840;SDS011;406;48.566;13.450;2022-12-29T13:52:42;10.00;;;6.53;;
840;SDS011;406;48.566;13.450;2022-12-29T13:55:27;8.60;;;6.03;;
840;SDS011;406;48.566;13.450;2022-12-29T14:00:50;9.00;;;5.70;;
840;SDS011;406;48.566;13.450;2022-12-29T14:08:56;10.37;;;7.17;;
840;SDS011;406;48.566;13.450;2022-12-29T14:11:29;7.43;;;5.50;;
840;SDS011;406;48.566;13.450;2022-12-29T14:13:56;10.47;;;5.17;;
840;SDS011;406;48.566;13.450;2022-12-29T14:16:26;7.93;;;5.77;;
840;SDS011;406;48.566;13.450;2022-12-29T14:18:54;6.13;;;5.47;;
840;SDS011;406;48.566;13.450;2022-12-29T14:21:23;7.90;;;6.90;;
840;SDS011;406;48.566;13.450;2022-12-29T14:23:53;9.90;;;7.20;;
840;SDS011;406;48.566;13.450;2022-12-29T14:28:53;7.40;;;6.00;;
840;SDS011;406;48.566;13.450;2022-12-29T14:36:33;6.83;;;5.70;;
840;SDS011;406;48.566;13.450;2022-12-29T14:39:03;9.10;;;6.10;;
840;SDS011;406;48.566;13.450;2022-12-29T14:41:33;7.30;;;5.83;;
840;SDS011;406;48.566;13.450;2022-12-29T14:46:45;11.83;;;6.77;;
840;SDS011;406;48.566;13.450;2022-12-29T14:49:20;7.63;;;5.13;;
840;SDS011;406;48.566;13.450;2022-12-29T14:51:48;9.27;;;5.30;;
840;SDS011;406;48.566;13.450;2022-12-29T14:57:07;11.57;;;6.43;;
840;SDS011;406;48.566;13.450;2022-12-29T14:59:39;7.90;;;6.60;;
840;SDS011;406;48.566;13.450;2022-12-29T15:02:11;6.80;;;6.10;;
840;SDS011;406;48.566;13.450;2022-12-29T15:04:41;8.50;;;5.60;;
840;SDS011;406;48.566;13.450;2022-12-29T15:07:07;6.60;;;5.70;;
840;SDS011;406;48.566;13.450;2022-12-29T15:17:43;8.07;;;5.73;;
840;SDS011;406;48.566;13.450;2022-12-29T15:20:28;6.60;;;5.13;;
840;SDS011;406;48.566;13.450;2022-12-29T15:22:56;7.10;;;5.53;;
840;SDS011;406;48.566;13.450;2022-12-29T15:25:23;6.97;;;5.37;;
840;SDS011;406;48.566;13.450;2022-12-29T15:27:53;6.13;;;5.30;;
840;SDS011;406;48.566;13.450;2022-12-29T15:30:22;6.93;;;5.20;;
840;SDS011;406;48.566;13.450;2022-12-29T15:32:48;6.03;;;5.00;;
840;SDS011;406;48.566;13.450;2022-12-29T15:35:28;8.40;;;4.70;;
840;SDS011;406;48.566;13.450;2022-12-29T15:38:12;7.63;;;4.77;;
840;SDS011;406;48.566;13.450;2022-12-29T15:40:39;5.50;;;4.73;;
840;SDS011;406;48.566;13.450;2022-12-29T15:43:14;7.67;;;5.03;;
840;SDS011;406;48.566;13.450;2022-12-29T15:45:48;6.67;;;5.97;;
840;SDS011;406;48.566;13.450;2022-12-29T15:48:18;8.37;;;5.13;;
840;SDS011;406;48.566;13.450;2022-12-29T15:50:47;13.57;;;5.10;;
840;SDS011;406;48.566;13.450;2022-12-29T15:53:21;5.57;;;4.63;;
840;SDS011;406;48.566;13.450;2022-12-29T15:55:55;8.07;;;4.90;;
840;SDS011;406;48.566;13.450;2022-12-29T15:58:27;6.20;;;5.20;;
840;SDS011;406;48.566;13.450;2022-12-29T16:00:54;7.17;;;5.27;;
840;SDS011;406;48.566;13.450;2022-12-29T16:03:24;8.57;;;5.70;;
840;SDS011;406;48.566;13.450;2022-12-29T16:05:56;6.33;;;4.80;;
840;SDS011;406;48.566;13.450;2022-12-29T16:08:33;5.45;;;4.70;;
840;SDS011;406;48.566;13.450;2022-12-29T16:11:02;8.63;;;6.10;;
840;SDS011;406;48.566;13.450;2022-12-29T16:13:31;5.43;;;4.50;;
840;SDS011;406;48.566;13.450;2022-12-29T16:16:17;7.17;;;5.00;;
840;SDS011;406;48.566;13.450;2022-12-29T16:18:44;7.60;;;6.00;;
840;SDS011;406;48.566;13.450;2022-12-29T16:21:21;8.90;;;5.73;;
840;SDS011;406;48.566;13.450;2022-12-29T16:23:50;7.00;;;5.15;;
840;SDS011;406;48.566;13.450;2022-12-29T16:26:17;7.53;;;5.13;;
840;SDS011;406;48.566;13.450;2022-12-29T16:28:43;7.72;;;5.55;;
840;SDS011;406;48.566;13.450;2022-12-29T16:31:21;10.07;;;7.00;;
840;SDS011;406;48.566;13.450;2022-12-29T16:33:54;8.20;;;6.40;;
840;SDS011;406;48.566;13.450;2022-12-29T16:36:21;8.33;;;7.00;;
840;SDS011;406;48.566;13.450;2022-12-29T16:38:48;8.00;;;5.87;;
840;SDS011;406;48.566;13.450;2022-12-29T16:41:27;12.33;;;7.00;;
840;SDS011;406;48.566;13.450;2022-12-29T16:44:15;9.70;;;6.57;;
840;SDS011;406;48.566;13.450;2022-12-29T16:49:31;9.75;;;6.55;;
840;SDS011;406;48.566;13.450;2022-12-29T16:51:58;9.00;;;6.93;;
840;SDS011;406;48.566;13.450;2022-12-29T16:54:24;11.50;;;7.80;;
840;SDS011;406;48.566;13.450;2022-12-29T16:57:00;10.47;;;8.23;;
840;SDS011;406;48.566;13.450;2022-12-29T16:59:27;8.67;;;6.60;;
840;SDS011;406;48.566;13.450;2022-12-29T17:01:56;8.63;;;6.00;;
840;SDS011;406;48.566;13.450;2022-12-29T17:04:23;9.98;;;7.30;;
840;SDS011;406;48.566;13.450;2022-12-29T17:06:48;10.60;;;7.30;;
840;SDS011;406;48.566;13.450;2022-12-29T17:11:44;8.38;;;6.47;;
840;SDS011;406;48.566;13.450;2022-12-29T17:17:16;10.52;;;8.20;;
840;SDS011;406;48.566;13.450;2022-12-29T17:19:47;9.23;;;6.82;;
840;SDS011;406;48.566;13.450;2022-12-29T17:22:16;10.45;;;6.20;;
840;SDS011;406;48.566;13.450;2022-12-29T17:24:46;10.15;;;5.90;;
840;SDS011;406;48.566;13.450;2022-12-29T17:27:17;9.80;;;7.57;;
840;SDS011;406;48.566;13.450;2022-12-29T17:30:13;10.35;;;7.50;;
840;SDS011;406;48.566;13.450;2022-12-29T17:32:40;8.57;;;6.72;;
840;SDS011;406;48.566;13.450;2022-12-29T17:35:12;10.05;;;7.53;;
840;SDS011;406;48.566;13.450;2022-12-29T17:37:39;8.43;;;6.95;;
840;SDS011;406;48.566;13.450;2022-12-29T17:40:05;8.23;;;6.10;;
840;SDS011;406;48.566;13.450;2022-12-29T17:42:40;8.25;;;6.47;;
840;SDS011;406;48.566;13.450;2022-12-29T17:45:11;9.15;;;6.75;;
840;SDS011;406;48.566;13.450;2022-12-29T17:47:42;8.63;;;5.72;;
840;SDS011;406;48.566;13.450;2022-12-29T17:50:10;10.73;;;7.50;;